createdAt,value
2023-05-11T00:01:19.618Z,11.12
2023-05-11T00:03:46.914Z,11.13
2023-05-11T00:06:14.171Z,10.99
2023-05-11T00:08:41.349Z,10.98
2023-05-11T00:11:09.403Z,11.05
2023-05-11T00:13:36.655Z,10.99
2023-05-11T00:16:04.773Z,10.95
2023-05-11T00:18:32.208Z,10.98
2023-05-11T00:20:59.592Z,10.92
2023-05-11T00:23:26.924Z,10.92
2023-05-11T00:25:54.410Z,10.83
2023-05-11T00:28:22.952Z,10.87
2023-05-11T00:30:50.522Z,10.71
2023-05-11T00:33:18.614Z,10.59
2023-05-11T00:35:45.936Z,10.58
2023-05-11T00:38:13.161Z,10.51
2023-05-11T00:40:40.511Z,10.38
2023-05-11T00:43:07.815Z,10.37
2023-05-11T00:45:36.425Z,10.48
2023-05-11T00:48:04.483Z,10.35
2023-05-11T00:50:32.021Z,10.31
2023-05-11T00:53:00.713Z,10.17
2023-05-11T00:55:28.980Z,10.12
2023-05-11T00:57:56.367Z,10.22
2023-05-11T01:00:23.730Z,10.25
2023-05-11T01:02:52.173Z,10.20
2023-05-11T01:05:20.298Z,10.05
2023-05-11T01:08:12.907Z,9.94
2023-05-11T01:10:58.610Z,9.86
2023-05-11T01:13:36.522Z,9.82
2023-05-11T01:16:24.339Z,9.71
2023-05-11T01:19:05.780Z,9.72
2023-05-11T01:21:34.755Z,9.61
2023-05-11T01:24:26.994Z,9.49
2023-05-11T01:27:04.163Z,9.52
2023-05-11T01:30:04.625Z,9.58
2023-05-11T01:32:36.344Z,9.65
2023-05-11T01:35:13.882Z,9.69
2023-05-11T01:37:46.707Z,9.74
2023-05-11T01:40:17.519Z,9.71
2023-05-11T01:43:08.584Z,9.57
2023-05-11T01:45:41.048Z,9.53
2023-05-11T01:48:14.559Z,9.54
2023-05-11T01:50:43.530Z,9.55
2023-05-11T01:53:13.807Z,9.55
2023-05-11T01:55:42.522Z,9.53
2023-05-11T01:58:13.430Z,9.47
2023-05-11T02:00:43.280Z,9.37
2023-05-11T02:03:12.867Z,9.26
2023-05-11T02:05:43.022Z,9.34
2023-05-11T02:08:12.415Z,9.37
2023-05-11T02:10:41.907Z,9.37
2023-05-11T02:13:10.378Z,9.38
2023-05-11T02:15:42.341Z,9.40
2023-05-11T02:18:15.964Z,9.34
2023-05-11T02:20:46.023Z,9.21
2023-05-11T02:23:14.827Z,9.31
2023-05-11T02:25:43.188Z,9.30
2023-05-11T02:28:10.601Z,9.28
2023-05-11T02:30:50.090Z,9.20
2023-05-11T02:33:39.486Z,9.19
2023-05-11T02:36:08.239Z,9.12
2023-05-11T02:38:38.634Z,9.14
2023-05-11T02:41:14.737Z,9.16
2023-05-11T02:43:47.029Z,9.15
2023-05-11T02:46:20.287Z,9.17
2023-05-11T02:48:54.618Z,9.15
2023-05-11T02:51:30.944Z,9.22
2023-05-11T02:54:00.974Z,9.19
2023-05-11T02:56:31.113Z,9.20
2023-05-11T02:58:58.893Z,9.20
2023-05-11T03:01:30.627Z,9.19
2023-05-11T03:03:58.663Z,9.10
2023-05-11T03:06:27.885Z,9.04
2023-05-11T03:08:55.404Z,9.01
2023-05-11T03:11:23.889Z,8.89
2023-05-11T03:13:51.398Z,8.77
2023-05-11T03:16:21.249Z,8.69
2023-05-11T03:18:50.838Z,8.67
2023-05-11T03:21:21.503Z,8.68
2023-05-11T03:23:49.939Z,8.73
2023-05-11T03:26:22.242Z,8.58
2023-05-11T03:28:52.480Z,8.71
2023-05-11T03:31:19.896Z,8.68
2023-05-11T03:33:47.285Z,8.82
2023-05-11T03:36:15.811Z,8.99
2023-05-11T03:38:48.910Z,8.96
2023-05-11T03:41:19.620Z,9.04
2023-05-11T03:43:53.739Z,9.00
2023-05-11T03:46:24.613Z,9.14
2023-05-11T03:48:53.091Z,9.23
2023-05-11T03:51:24.323Z,9.24
2023-05-11T03:53:51.617Z,9.40
2023-05-11T03:56:21.618Z,9.47
2023-05-11T03:58:49.253Z,9.53
2023-05-11T04:01:16.633Z,9.65
2023-05-11T04:03:50.150Z,9.80
2023-05-11T04:06:19.187Z,9.83
2023-05-11T04:08:50.703Z,9.94
2023-05-11T04:11:18.099Z,10.00
2023-05-11T04:13:45.364Z,9.98
2023-05-11T04:16:12.808Z,10.17
2023-05-11T04:18:40.257Z,10.17
2023-05-11T04:21:07.516Z,10.16
2023-05-11T04:23:35.043Z,10.29
2023-05-11T04:26:02.358Z,10.61
2023-05-11T04:28:29.717Z,10.73
2023-05-11T04:30:58.232Z,10.60
2023-05-11T04:33:25.936Z,10.70
2023-05-11T04:35:55.551Z,11.09
2023-05-11T04:38:25.247Z,11.48
2023-05-11T04:40:53.829Z,12.28
2023-05-11T04:43:21.202Z,12.53
2023-05-11T04:45:50.259Z,13.73
2023-05-11T04:48:22.481Z,14.14
2023-05-11T04:50:49.910Z,14.99
2023-05-11T04:53:19.369Z,14.88
2023-05-11T04:55:47.760Z,14.46
2023-05-11T04:58:15.123Z,13.67
2023-05-11T05:00:42.628Z,13.60
2023-05-11T05:03:09.952Z,13.20
2023-05-11T05:05:37.178Z,13.38
2023-05-11T05:08:04.503Z,13.64
2023-05-11T05:10:31.771Z,14.14
2023-05-11T05:12:59.203Z,15.69
2023-05-11T05:15:26.841Z,17.29
2023-05-11T05:17:54.269Z,17.90
2023-05-11T05:20:21.790Z,17.78
2023-05-11T05:22:49.275Z,18.16
2023-05-11T05:25:16.945Z,16.88
2023-05-11T05:27:44.300Z,15.70
2023-05-11T05:30:17.604Z,16.09
2023-05-11T05:32:45.303Z,17.50
2023-05-11T05:35:12.517Z,18.04
2023-05-11T05:37:40.976Z,18.89
2023-05-11T05:40:09.149Z,18.92
2023-05-11T05:42:42.069Z,18.24
2023-05-11T05:45:14.599Z,17.51
2023-05-11T05:47:42.478Z,17.02
2023-05-11T05:50:10.202Z,18.80
2023-05-11T05:52:37.804Z,20.47
2023-05-11T05:55:06.007Z,19.38
2023-05-11T05:57:33.773Z,18.57
2023-05-11T06:00:01.854Z,18.26
2023-05-11T06:02:29.570Z,19.36
2023-05-11T06:04:56.966Z,19.12
2023-05-11T06:07:24.353Z,18.76
2023-05-11T06:09:51.571Z,19.80
2023-05-11T06:12:18.762Z,22.47
2023-05-11T06:14:48.557Z,23.19
2023-05-11T06:17:15.990Z,24.68
2023-05-11T06:19:45.206Z,25.60
2023-05-11T06:22:13.047Z,25.33
2023-05-11T06:24:40.334Z,24.97
2023-05-11T06:27:07.680Z,25.30
2023-05-11T06:29:35.211Z,25.18
2023-05-11T06:32:04.233Z,25.39
2023-05-11T06:34:33.388Z,25.74
2023-05-11T06:37:01.548Z,26.02
2023-05-11T06:39:29.294Z,26.18
2023-05-11T06:41:58.702Z,26.83
2023-05-11T06:44:29.332Z,27.86
2023-05-11T06:46:58.322Z,27.63
2023-05-11T06:49:25.616Z,27.54
2023-05-11T06:51:53.011Z,27.87
2023-05-11T06:54:22.845Z,28.02
2023-05-11T06:56:50.327Z,28.65
2023-05-11T06:59:17.629Z,29.06
2023-05-11T07:01:44.913Z,29.63
2023-05-11T07:04:12.253Z,29.45
2023-05-11T07:06:39.528Z,28.59
2023-05-11T07:09:06.745Z,29.07
2023-05-11T07:11:34.413Z,29.29
2023-05-11T07:14:01.676Z,29.44
2023-05-11T07:16:29.199Z,29.70
2023-05-11T07:18:56.503Z,29.97
2023-05-11T07:21:23.800Z,30.86
2023-05-11T07:23:51.000Z,32.26
2023-05-11T07:26:18.297Z,32.00
2023-05-11T07:28:45.587Z,32.04
2023-05-11T07:31:13.174Z,33.03
2023-05-11T07:33:40.831Z,33.02
2023-05-11T07:36:08.147Z,33.08
2023-05-11T07:38:36.424Z,31.34
2023-05-11T07:41:06.494Z,32.73
2023-05-11T07:43:34.195Z,32.18
2023-05-11T07:46:01.387Z,30.93
2023-05-11T07:48:28.915Z,30.04
2023-05-11T07:50:56.175Z,31.26
2023-05-11T07:53:23.402Z,30.30
2023-05-11T07:55:50.793Z,31.65
2023-05-11T07:58:18.094Z,29.59
2023-05-11T08:00:45.284Z,29.16
2023-05-11T08:03:13.157Z,30.42
2023-05-11T08:05:40.542Z,30.96
2023-05-11T08:08:08.105Z,31.65
2023-05-11T08:10:36.531Z,32.42
2023-05-11T08:13:03.949Z,32.53
2023-05-11T08:15:31.404Z,31.32
2023-05-11T08:17:58.689Z,32.01
2023-05-11T08:20:26.846Z,32.26
2023-05-11T08:22:54.194Z,30.09
2023-05-11T08:25:21.450Z,27.82
2023-05-11T08:27:48.687Z,25.84
2023-05-11T08:30:16.293Z,30.02
2023-05-11T08:35:15.088Z,34.31
2023-05-11T08:37:42.368Z,32.57
2023-05-11T08:40:13.947Z,30.33
2023-05-11T08:42:46.777Z,31.97
2023-05-11T08:45:14.611Z,32.31
2023-05-11T08:47:42.268Z,30.68
2023-05-11T08:50:09.973Z,32.67
2023-05-11T08:52:37.900Z,33.30
2023-05-11T08:55:05.918Z,31.84
2023-05-11T08:57:35.370Z,34.19
2023-05-11T09:00:04.294Z,34.63
2023-05-11T09:02:32.680Z,35.50
2023-05-11T09:05:04.307Z,34.19
2023-05-11T09:07:35.783Z,34.43
2023-05-11T09:10:04.655Z,36.12
2023-05-11T09:12:32.021Z,37.42
2023-05-11T09:15:02.445Z,35.93
2023-05-11T09:17:30.103Z,36.02
2023-05-11T09:20:00.617Z,35.96
2023-05-11T09:22:30.591Z,35.48
2023-05-11T09:25:02.264Z,35.02
2023-05-11T09:27:29.623Z,35.00
2023-05-11T09:29:56.848Z,33.11
2023-05-11T09:32:24.541Z,32.66
2023-05-11T09:34:51.963Z,29.28
2023-05-11T09:37:19.723Z,29.05
2023-05-11T09:42:25.952Z,30.53
2023-05-11T09:44:54.030Z,28.29
2023-05-11T09:47:24.722Z,27.94
2023-05-11T09:49:51.968Z,27.07
2023-05-11T09:52:21.134Z,26.94
2023-05-11T09:54:52.905Z,28.40
2023-05-11T09:57:28.068Z,31.44
2023-05-11T10:00:00.366Z,32.65
2023-05-11T10:02:30.533Z,32.50
2023-05-11T10:05:00.799Z,30.06
2023-05-11T10:07:31.161Z,29.84
2023-05-11T10:10:01.935Z,31.72
2023-05-11T10:12:32.375Z,31.47
2023-05-11T10:15:08.395Z,30.98
2023-05-11T10:17:37.130Z,30.62
2023-05-11T10:20:06.782Z,31.08
2023-05-11T10:22:34.801Z,31.42
2023-05-11T10:25:03.062Z,30.06
2023-05-11T10:27:32.065Z,29.70
2023-05-11T10:30:00.674Z,31.46
2023-05-11T10:32:28.696Z,31.18
2023-05-11T10:34:57.116Z,31.50
2023-05-11T10:37:25.436Z,32.05
2023-05-11T10:39:52.910Z,30.66
2023-05-11T10:43:06.336Z,31.76
2023-05-11T10:46:16.918Z,31.98
2023-05-11T10:49:22.224Z,28.13
2023-05-11T10:52:13.321Z,26.75
2023-05-11T10:55:18.268Z,26.48
2023-05-11T10:58:09.641Z,27.53
2023-05-11T11:01:01.628Z,27.39
2023-05-11T11:03:29.090Z,25.58
2023-05-11T11:05:57.575Z,26.28
2023-05-11T11:08:26.616Z,26.79
2023-05-11T11:10:54.001Z,27.40
2023-05-11T11:13:23.352Z,28.03
2023-05-11T11:15:54.075Z,27.36
2023-05-11T11:18:26.252Z,26.63
2023-05-11T11:20:56.396Z,26.90
2023-05-11T11:23:42.477Z,27.09
2023-05-11T11:26:13.282Z,26.83
2023-05-11T11:28:58.404Z,26.66
2023-05-11T11:31:34.385Z,26.71
2023-05-11T11:34:30.070Z,25.95
2023-05-11T11:37:06.358Z,24.67
2023-05-11T11:39:43.010Z,24.13
2023-05-11T11:42:13.292Z,23.82
2023-05-11T11:44:43.557Z,24.41
2023-05-11T11:47:21.565Z,24.53
2023-05-11T11:49:55.938Z,24.66
2023-05-11T11:52:29.642Z,24.40
2023-05-11T11:55:02.701Z,24.65
2023-05-11T11:57:33.061Z,24.88
2023-05-11T12:00:01.701Z,24.49
2023-05-11T12:02:29.141Z,24.27
2023-05-11T12:05:24.443Z,23.70
2023-05-11T12:07:53.574Z,23.83
2023-05-11T12:10:22.900Z,23.76
2023-05-11T12:12:55.109Z,22.90
2023-05-11T12:15:27.714Z,22.83
2023-05-11T12:17:56.320Z,23.51
2023-05-11T12:20:24.422Z,23.39
2023-05-11T12:22:51.902Z,23.33
2023-05-11T12:25:20.984Z,23.25
2023-05-11T12:28:03.278Z,23.00
2023-05-11T12:30:33.116Z,23.34
2023-05-11T12:33:04.356Z,22.93
2023-05-11T12:35:34.664Z,22.46
2023-05-11T12:38:02.727Z,23.08
2023-05-11T12:40:31.548Z,23.51
2023-05-11T12:43:00.719Z,23.67
2023-05-11T12:45:29.425Z,23.89
2023-05-11T12:47:58.614Z,24.07
2023-05-11T12:50:25.965Z,23.84
2023-05-11T12:52:53.281Z,23.91
2023-05-11T12:55:31.234Z,23.81
2023-05-11T12:58:15.543Z,23.21
2023-05-11T13:01:00.106Z,23.07
2023-05-11T13:03:34.279Z,22.78
2023-05-11T13:06:12.756Z,22.89
2023-05-11T13:08:45.169Z,22.62
2023-05-11T13:11:26.804Z,22.82
2023-05-11T13:13:57.089Z,22.98
2023-05-11T13:16:33.703Z,22.28
2023-05-11T13:19:08.567Z,22.69
2023-05-11T13:21:36.368Z,22.80
2023-05-11T13:24:04.148Z,23.42
2023-05-11T13:26:32.683Z,23.27
2023-05-11T13:29:10.311Z,22.88
2023-05-11T13:31:50.128Z,22.05
2023-05-11T13:34:19.217Z,21.94
2023-05-11T13:36:47.199Z,22.18
2023-05-11T13:39:14.495Z,22.17
2023-05-11T13:41:41.809Z,21.77
2023-05-11T13:44:09.117Z,21.75
2023-05-11T13:46:36.474Z,22.14
2023-05-11T13:49:04.842Z,22.57
2023-05-11T13:51:32.557Z,22.20
2023-05-11T13:54:02.531Z,22.27
2023-05-11T13:56:30.127Z,22.38
2023-05-11T13:58:59.857Z,22.44
2023-05-11T14:01:27.696Z,22.51
2023-05-11T14:03:56.131Z,22.50
2023-05-11T14:06:25.249Z,22.86
2023-05-11T14:08:53.256Z,22.92
2023-05-11T14:11:21.551Z,23.10
2023-05-11T14:13:49.007Z,22.35
2023-05-11T14:16:16.547Z,22.36
2023-05-11T14:18:44.492Z,22.09
2023-05-11T14:21:12.192Z,22.28
2023-05-11T14:23:43.142Z,22.38
2023-05-11T14:26:14.689Z,22.45
2023-05-11T14:28:42.334Z,22.03
2023-05-11T14:31:10.016Z,22.16
2023-05-11T14:33:37.369Z,22.71
2023-05-11T14:36:04.984Z,22.94
2023-05-11T14:38:32.300Z,22.77
2023-05-11T14:41:00.233Z,22.77
2023-05-11T14:43:27.650Z,22.47
2023-05-11T14:45:55.243Z,22.13
2023-05-11T14:48:23.310Z,22.24
2023-05-11T14:50:50.543Z,22.07
2023-05-11T14:53:18.262Z,21.59
2023-05-11T14:55:45.593Z,21.37
2023-05-11T14:58:12.800Z,21.41
2023-05-11T15:00:40.467Z,21.12
2023-05-11T15:03:10.733Z,21.58
2023-05-11T15:05:38.665Z,21.57
2023-05-11T15:08:12.914Z,21.65
2023-05-11T15:10:42.929Z,21.60
2023-05-11T15:13:10.357Z,21.71
2023-05-11T15:15:37.913Z,21.45
2023-05-11T15:18:05.305Z,21.57
2023-05-11T15:20:32.597Z,21.62
2023-05-11T15:22:59.912Z,21.69
2023-05-11T15:25:27.176Z,21.94
2023-05-11T15:27:54.444Z,22.25
2023-05-11T15:30:21.989Z,22.06
2023-05-11T15:32:49.336Z,21.86
2023-05-11T15:35:17.294Z,21.80
2023-05-11T15:37:44.730Z,21.34
2023-05-11T15:40:13.561Z,21.28
2023-05-11T15:42:41.220Z,20.88
2023-05-11T15:45:08.891Z,20.90
2023-05-11T15:47:36.062Z,20.89
2023-05-11T15:50:03.463Z,20.75
2023-05-11T15:52:30.801Z,20.73
2023-05-11T15:54:57.942Z,20.77
2023-05-11T15:57:25.206Z,20.91
2023-05-11T15:59:52.521Z,20.76
2023-05-11T16:02:19.815Z,20.84
2023-05-11T16:04:47.064Z,20.59
2023-05-11T16:07:14.371Z,20.52
2023-05-11T16:09:41.672Z,20.21
2023-05-11T16:12:09.197Z,20.40
2023-05-11T16:14:36.634Z,20.49
2023-05-11T16:17:04.259Z,20.17
2023-05-11T16:19:32.528Z,20.18
2023-05-11T16:21:59.731Z,20.15
2023-05-11T16:24:27.153Z,19.85
2023-05-11T16:26:54.349Z,19.95
2023-05-11T16:29:21.625Z,19.81
2023-05-11T16:31:48.949Z,19.68
2023-05-11T16:34:16.234Z,19.51
2023-05-11T16:36:44.737Z,19.62
2023-05-11T16:39:12.692Z,19.51
2023-05-11T16:41:40.133Z,19.41
2023-05-11T16:44:07.537Z,19.32
2023-05-11T16:46:34.843Z,19.40
2023-05-11T16:49:02.345Z,19.29
2023-05-11T16:51:29.892Z,19.34
2023-05-11T16:53:57.344Z,19.29
2023-05-11T16:56:24.788Z,19.35
2023-05-11T16:58:52.704Z,19.18
2023-05-11T17:01:20.569Z,19.05
2023-05-11T17:03:48.099Z,19.25
2023-05-11T17:06:19.038Z,19.15
2023-05-11T17:08:47.931Z,19.07
2023-05-11T17:11:15.201Z,19.08
2023-05-11T17:13:42.512Z,19.08
2023-05-11T17:16:09.922Z,18.99
2023-05-11T17:18:37.319Z,18.93
2023-05-11T17:21:04.808Z,18.87
2023-05-11T17:23:32.868Z,18.84
2023-05-11T17:26:00.255Z,18.78
2023-05-11T17:28:27.615Z,18.66
2023-05-11T17:30:54.835Z,18.65
2023-05-11T17:33:23.536Z,18.77
2023-05-11T17:35:51.453Z,18.71
2023-05-11T17:38:18.815Z,18.61
2023-05-11T17:40:46.269Z,18.58
2023-05-11T17:43:13.431Z,18.49
2023-05-11T17:45:40.748Z,18.48
2023-05-11T17:48:08.075Z,18.45
2023-05-11T17:50:37.033Z,18.35
2023-05-11T17:53:05.417Z,18.29
2023-05-11T17:55:32.782Z,18.26
2023-05-11T17:58:00.055Z,18.08
2023-05-11T18:00:27.900Z,18.05
2023-05-11T18:02:55.737Z,18.08
2023-05-11T18:05:28.126Z,18.00
2023-05-11T18:08:02.898Z,18.08
2023-05-11T18:10:30.297Z,17.99
2023-05-11T18:12:57.528Z,17.96
2023-05-11T18:15:24.799Z,17.88
2023-05-11T18:17:54.251Z,17.88
2023-05-11T18:20:21.709Z,17.87
2023-05-11T18:22:49.775Z,17.83
2023-05-11T18:25:17.426Z,17.66
2023-05-11T18:27:44.682Z,17.65
2023-05-11T18:30:12.517Z,17.56
2023-05-11T18:32:39.904Z,17.67
2023-05-11T18:35:07.743Z,17.72
2023-05-11T18:37:36.458Z,17.60
2023-05-11T18:40:06.377Z,17.53
2023-05-11T18:42:33.738Z,17.55
2023-05-11T18:45:01.109Z,17.72
2023-05-11T18:47:28.480Z,17.73
2023-05-11T18:49:57.484Z,17.66
2023-05-11T18:52:24.943Z,17.50
2023-05-11T18:54:52.135Z,17.42
2023-05-11T18:57:21.022Z,17.39
2023-05-11T18:59:48.651Z,17.30
2023-05-11T19:02:16.207Z,17.29
2023-05-11T19:04:44.013Z,17.27
2023-05-11T19:07:11.590Z,17.34
2023-05-11T19:09:38.803Z,17.17
2023-05-11T19:12:06.942Z,17.04
2023-05-11T19:14:34.941Z,16.85
2023-05-11T19:17:04.688Z,16.73
2023-05-11T19:19:32.097Z,16.74
2023-05-11T19:21:59.933Z,16.69
2023-05-11T19:24:27.603Z,16.60
2023-05-11T19:27:05.911Z,16.66
2023-05-11T19:29:35.537Z,16.55
2023-05-11T19:32:03.723Z,16.45
2023-05-11T19:34:31.222Z,16.41
2023-05-11T19:36:58.555Z,16.39
2023-05-11T19:39:26.864Z,16.32
2023-05-11T19:41:54.190Z,16.31
2023-05-11T19:44:21.661Z,16.32
2023-05-11T19:46:48.899Z,16.36
2023-05-11T19:49:16.781Z,16.38
2023-05-11T19:51:44.225Z,16.37
2023-05-11T19:54:11.701Z,16.36
2023-05-11T19:56:39.408Z,16.34
2023-05-11T19:59:06.896Z,16.40
2023-05-11T20:01:35.437Z,16.35
2023-05-11T20:04:02.957Z,16.38
2023-05-11T20:06:30.891Z,16.30
2023-05-11T20:08:58.232Z,16.31
2023-05-11T20:11:26.203Z,16.17
2023-05-11T20:13:53.972Z,16.14
2023-05-11T20:16:21.548Z,16.07
2023-05-11T20:18:48.866Z,16.11
2023-05-11T20:21:16.752Z,16.00
2023-05-11T20:23:44.337Z,15.91
2023-05-11T20:26:11.702Z,15.81
2023-05-11T20:28:39.823Z,15.72
2023-05-11T20:31:07.370Z,15.65
2023-05-11T20:36:05.326Z,15.61
2023-05-11T20:38:32.980Z,15.59
2023-05-11T20:41:00.243Z,15.56
2023-05-11T20:43:27.999Z,15.55
2023-05-11T20:45:55.677Z,15.53
2023-05-11T20:48:35.887Z,15.49
2023-05-11T20:51:06.199Z,15.48
2023-05-11T20:53:33.465Z,15.43
2023-05-11T20:56:02.572Z,15.46
2023-05-11T20:58:31.654Z,15.36
2023-05-11T21:00:59.130Z,15.43
2023-05-11T21:03:27.794Z,15.38
2023-05-11T21:05:56.288Z,15.38
2023-05-11T21:08:23.828Z,15.42
2023-05-11T21:10:51.218Z,15.37
2023-05-11T21:13:18.826Z,15.30
2023-05-11T21:15:46.211Z,15.15
2023-05-11T21:18:13.571Z,15.19
2023-05-11T21:20:41.128Z,15.14
2023-05-11T21:23:08.657Z,15.06
2023-05-11T21:25:36.345Z,14.97
2023-05-11T21:28:04.984Z,14.92
2023-05-11T21:30:32.296Z,14.68
2023-05-11T21:32:59.588Z,14.63
2023-05-11T21:35:27.136Z,14.54
2023-05-11T21:37:54.410Z,14.57
2023-05-11T21:40:21.818Z,14.50
2023-05-11T21:42:49.215Z,14.43
2023-05-11T21:45:16.659Z,14.43
2023-05-11T21:47:44.116Z,14.27
2023-05-11T21:50:12.200Z,14.06
2023-05-11T21:52:39.509Z,13.89
2023-05-11T21:55:07.427Z,13.68
2023-05-11T21:57:34.669Z,13.47
2023-05-11T22:00:02.404Z,13.31
2023-05-11T22:02:32.659Z,13.15
2023-05-11T22:04:59.977Z,13.06
2023-05-11T22:07:27.175Z,12.95
2023-05-11T22:09:54.400Z,12.81
2023-05-11T22:12:21.958Z,12.74
2023-05-11T22:14:49.465Z,12.61
2023-05-11T22:17:16.762Z,12.49
2023-05-11T22:19:44.051Z,12.41
2023-05-11T22:22:11.304Z,12.32
2023-05-11T22:24:38.569Z,12.29
2023-05-11T22:27:08.599Z,12.27
2023-05-11T22:29:36.393Z,12.20
2023-05-11T22:32:03.746Z,12.16
2023-05-11T22:34:31.059Z,12.09
2023-05-11T22:37:00.243Z,12.08
2023-05-11T22:39:28.816Z,11.95
2023-05-11T22:41:56.631Z,11.96
2023-05-11T22:44:24.057Z,11.97
2023-05-11T22:46:51.270Z,11.88
2023-05-11T22:49:18.488Z,11.90
2023-05-11T22:51:45.736Z,11.84
2023-05-11T22:54:14.607Z,11.73
2023-05-11T22:56:43.041Z,11.68
2023-05-11T22:59:10.262Z,11.59
2023-05-11T23:01:37.682Z,11.51
2023-05-11T23:04:04.970Z,11.50
2023-05-11T23:06:32.786Z,11.54
2023-05-11T23:08:59.949Z,11.59
2023-05-11T23:11:27.279Z,11.53
2023-05-11T23:13:54.508Z,11.50
2023-05-11T23:16:22.317Z,11.54
2023-05-11T23:18:49.809Z,11.51
2023-05-11T23:21:17.926Z,11.47
2023-05-11T23:23:45.141Z,11.44
2023-05-11T23:26:12.884Z,11.42
2023-05-11T23:28:40.142Z,11.37
2023-05-11T23:31:07.370Z,11.35
2023-05-11T23:33:35.032Z,11.29
2023-05-11T23:36:02.252Z,11.25
2023-05-11T23:38:29.836Z,11.15
2023-05-11T23:40:57.108Z,11.14
2023-05-11T23:43:24.368Z,11.07
2023-05-11T23:45:52.203Z,11.02
2023-05-11T23:48:19.575Z,11.02
2023-05-11T23:50:46.888Z,10.90
2023-05-11T23:53:14.223Z,10.91
2023-05-11T23:55:41.532Z,10.88
2023-05-11T23:58:08.749Z,10.82
